sensor_id;sensor_type;location;lat;lon;timestamp;P1;durP1;ratioP1;P2;durP2;ratioP2
36253;SDS011;22291;52.250;21.228;2022-10-16T00:01:19;92.17;;;85.25;;
36253;SDS011;22291;52.250;21.228;2022-10-16T00:03:49;27.95;;;16.75;;
36253;SDS011;22291;52.250;21.228;2022-10-16T00:06:17;25.45;;;15.08;;
36253;SDS011;22291;52.250;21.228;2022-10-16T00:08:46;26.02;;;15.85;;
36253;SDS011;22291;52.250;21.228;2022-10-16T00:11:24;26.77;;;16.67;;
36253;SDS011;22291;52.250;21.228;2022-10-16T00:13:56;25.97;;;16.77;;
36253;SDS011;22291;52.250;21.228;2022-10-16T00:16:25;29.80;;;16.70;;
36253;SDS011;22291;52.250;21.228;2022-10-16T00:18:53;27.45;;;17.10;;
36253;SDS011;22291;52.250;21.228;2022-10-16T00:21:21;30.05;;;17.70;;
36253;SDS011;22291;52.250;21.228;2022-10-16T00:23:51;31.90;;;16.90;;
36253;SDS011;22291;52.250;21.228;2022-10-16T00:26:24;30.23;;;17.37;;
36253;SDS011;22291;52.250;21.228;2022-10-16T00:28:53;27.62;;;16.60;;
36253;SDS011;22291;52.250;21.228;2022-10-16T00:31:20;33.85;;;17.85;;
36253;SDS011;22291;52.250;21.228;2022-10-16T00:33:48;30.92;;;17.82;;
36253;SDS011;22291;52.250;21.228;2022-10-16T00:36:16;29.02;;;17.27;;
36253;SDS011;22291;52.250;21.228;2022-10-16T00:38:45;31.80;;;17.90;;
36253;SDS011;22291;52.250;21.228;2022-10-16T00:41:14;32.93;;;17.95;;
36253;SDS011;22291;52.250;21.228;2022-10-16T00:46:22;27.70;;;17.27;;
36253;SDS011;22291;52.250;21.228;2022-10-16T00:51:39;33.70;;;18.15;;
36253;SDS011;22291;52.250;21.228;2022-10-16T00:54:14;31.12;;;18.95;;
36253;SDS011;22291;52.250;21.228;2022-10-16T00:56:45;30.65;;;17.82;;
36253;SDS011;22291;52.250;21.228;2022-10-16T00:59:20;35.55;;;19.70;;
36253;SDS011;22291;52.250;21.228;2022-10-16T01:01:50;32.53;;;19.42;;
36253;SDS011;22291;52.250;21.228;2022-10-16T01:04:17;36.93;;;19.05;;
36253;SDS011;22291;52.250;21.228;2022-10-16T01:12:16;27.95;;;16.73;;
36253;SDS011;22291;52.250;21.228;2022-10-16T01:17:39;32.63;;;17.27;;
36253;SDS011;22291;52.250;21.228;2022-10-16T01:22:58;33.33;;;18.70;;
36253;SDS011;22291;52.250;21.228;2022-10-16T01:26:14;30.88;;;17.52;;
36253;SDS011;22291;52.250;21.228;2022-10-16T01:28:55;30.27;;;17.75;;
36253;SDS011;22291;52.250;21.228;2022-10-16T01:31:56;31.45;;;18.02;;
36253;SDS011;22291;52.250;21.228;2022-10-16T01:34:30;37.70;;;20.05;;
36253;SDS011;22291;52.250;21.228;2022-10-16T01:37:09;32.98;;;18.70;;
36253;SDS011;22291;52.250;21.228;2022-10-16T01:39:38;32.28;;;17.27;;
36253;SDS011;22291;52.250;21.228;2022-10-16T01:42:09;33.20;;;18.85;;
36253;SDS011;22291;52.250;21.228;2022-10-16T01:44:42;29.63;;;18.90;;
36253;SDS011;22291;52.250;21.228;2022-10-16T01:47:11;30.93;;;19.00;;
36253;SDS011;22291;52.250;21.228;2022-10-16T01:49:40;29.45;;;18.02;;
36253;SDS011;22291;52.250;21.228;2022-10-16T01:52:16;35.45;;;19.40;;
36253;SDS011;22291;52.250;21.228;2022-10-16T01:54:46;36.60;;;20.05;;
36253;SDS011;22291;52.250;21.228;2022-10-16T01:57:15;31.48;;;19.27;;
36253;SDS011;22291;52.250;21.228;2022-10-16T01:59:44;34.15;;;19.70;;
36253;SDS011;22291;52.250;21.228;2022-10-16T02:02:15;37.13;;;20.75;;
36253;SDS011;22291;52.250;21.228;2022-10-16T02:04:45;41.50;;;21.35;;
36253;SDS011;22291;52.250;21.228;2022-10-16T02:07:15;37.63;;;21.35;;
36253;SDS011;22291;52.250;21.228;2022-10-16T02:09:42;30.27;;;19.67;;
36253;SDS011;22291;52.250;21.228;2022-10-16T02:12:18;37.53;;;22.07;;
36253;SDS011;22291;52.250;21.228;2022-10-16T02:14:56;36.88;;;21.20;;
36253;SDS011;22291;52.250;21.228;2022-10-16T02:17:23;38.78;;;21.75;;
36253;SDS011;22291;52.250;21.228;2022-10-16T02:19:51;33.90;;;22.05;;
36253;SDS011;22291;52.250;21.228;2022-10-16T02:22:32;37.48;;;21.93;;
36253;SDS011;22291;52.250;21.228;2022-10-16T02:25:03;39.78;;;22.25;;
36253;SDS011;22291;52.250;21.228;2022-10-16T02:27:47;35.25;;;22.93;;
36253;SDS011;22291;52.250;21.228;2022-10-16T02:32:58;35.55;;;21.75;;
36253;SDS011;22291;52.250;21.228;2022-10-16T02:35:28;38.17;;;24.20;;
36253;SDS011;22291;52.250;21.228;2022-10-16T02:37:56;37.20;;;23.45;;
36253;SDS011;22291;52.250;21.228;2022-10-16T02:40:23;40.05;;;23.90;;
36253;SDS011;22291;52.250;21.228;2022-10-16T02:42:52;36.15;;;23.35;;
36253;SDS011;22291;52.250;21.228;2022-10-16T02:45:19;35.80;;;22.02;;
36253;SDS011;22291;52.250;21.228;2022-10-16T02:47:47;34.00;;;22.67;;
36253;SDS011;22291;52.250;21.228;2022-10-16T02:50:13;37.75;;;23.87;;
36253;SDS011;22291;52.250;21.228;2022-10-16T02:52:40;35.98;;;23.95;;
36253;SDS011;22291;52.250;21.228;2022-10-16T02:55:06;34.92;;;22.52;;
36253;SDS011;22291;52.250;21.228;2022-10-16T02:57:33;35.60;;;23.15;;
36253;SDS011;22291;52.250;21.228;2022-10-16T03:00:02;36.33;;;20.97;;
36253;SDS011;22291;52.250;21.228;2022-10-16T03:02:31;33.58;;;21.12;;
36253;SDS011;22291;52.250;21.228;2022-10-16T03:04:57;31.12;;;20.32;;
36253;SDS011;22291;52.250;21.228;2022-10-16T03:07:24;36.10;;;21.68;;
36253;SDS011;22291;52.250;21.228;2022-10-16T03:09:50;30.57;;;19.23;;
36253;SDS011;22291;52.250;21.228;2022-10-16T03:12:17;33.80;;;21.70;;
36253;SDS011;22291;52.250;21.228;2022-10-16T03:14:43;34.80;;;22.55;;
36253;SDS011;22291;52.250;21.228;2022-10-16T03:17:09;33.90;;;22.37;;
36253;SDS011;22291;52.250;21.228;2022-10-16T03:19:35;33.13;;;22.67;;
36253;SDS011;22291;52.250;21.228;2022-10-16T03:22:01;38.75;;;23.10;;
36253;SDS011;22291;52.250;21.228;2022-10-16T03:24:27;36.98;;;23.15;;
36253;SDS011;22291;52.250;21.228;2022-10-16T03:26:53;36.73;;;24.05;;
36253;SDS011;22291;52.250;21.228;2022-10-16T03:29:19;39.00;;;25.23;;
36253;SDS011;22291;52.250;21.228;2022-10-16T03:31:46;33.92;;;19.52;;
36253;SDS011;22291;52.250;21.228;2022-10-16T03:34:13;31.50;;;20.52;;
36253;SDS011;22291;52.250;21.228;2022-10-16T03:36:39;36.08;;;21.30;;
36253;SDS011;22291;52.250;21.228;2022-10-16T03:39:06;37.93;;;21.23;;
36253;SDS011;22291;52.250;21.228;2022-10-16T03:41:32;32.25;;;21.42;;
36253;SDS011;22291;52.250;21.228;2022-10-16T03:43:58;36.17;;;25.05;;
36253;SDS011;22291;52.250;21.228;2022-10-16T03:46:25;37.80;;;25.15;;
36253;SDS011;22291;52.250;21.228;2022-10-16T03:48:51;36.00;;;24.05;;
36253;SDS011;22291;52.250;21.228;2022-10-16T03:51:17;38.15;;;24.92;;
36253;SDS011;22291;52.250;21.228;2022-10-16T03:53:43;44.03;;;39.48;;
36253;SDS011;22291;52.250;21.228;2022-10-16T03:56:09;81.22;;;74.42;;
36253;SDS011;22291;52.250;21.228;2022-10-16T03:58:35;90.53;;;82.95;;
36253;SDS011;22291;52.250;21.228;2022-10-16T04:01:02;33.48;;;20.10;;
36253;SDS011;22291;52.250;21.228;2022-10-16T04:03:29;30.55;;;20.17;;
36253;SDS011;22291;52.250;21.228;2022-10-16T04:05:55;31.07;;;19.32;;
36253;SDS011;22291;52.250;21.228;2022-10-16T04:08:22;30.27;;;19.95;;
36253;SDS011;22291;52.250;21.228;2022-10-16T04:10:48;32.23;;;18.77;;
36253;SDS011;22291;52.250;21.228;2022-10-16T04:13:15;31.42;;;19.80;;
36253;SDS011;22291;52.250;21.228;2022-10-16T04:15:41;31.77;;;19.73;;
36253;SDS011;22291;52.250;21.228;2022-10-16T04:18:08;36.53;;;25.57;;
36253;SDS011;22291;52.250;21.228;2022-10-16T04:20:34;33.60;;;24.70;;
36253;SDS011;22291;52.250;21.228;2022-10-16T04:23:00;37.20;;;32.98;;
36253;SDS011;22291;52.250;21.228;2022-10-16T04:25:26;87.30;;;80.03;;
36253;SDS011;22291;52.250;21.228;2022-10-16T04:27:53;88.95;;;81.90;;
36253;SDS011;22291;52.250;21.228;2022-10-16T04:30:21;59.03;;;53.38;;
36253;SDS011;22291;52.250;21.228;2022-10-16T04:32:52;36.20;;;29.63;;
36253;SDS011;22291;52.250;21.228;2022-10-16T04:35:17;95.55;;;88.05;;
36253;SDS011;22291;52.250;21.228;2022-10-16T04:37:46;96.78;;;89.03;;
36253;SDS011;22291;52.250;21.228;2022-10-16T04:40:12;96.78;;;88.67;;
36253;SDS011;22291;52.250;21.228;2022-10-16T04:42:40;95.65;;;87.90;;
36253;SDS011;22291;52.250;21.228;2022-10-16T04:45:06;96.17;;;88.50;;
36253;SDS011;22291;52.250;21.228;2022-10-16T04:47:33;95.15;;;87.55;;
36253;SDS011;22291;52.250;21.228;2022-10-16T04:50:00;96.28;;;88.67;;
36253;SDS011;22291;52.250;21.228;2022-10-16T04:52:28;94.20;;;86.80;;
36253;SDS011;22291;52.250;21.228;2022-10-16T04:54:54;96.92;;;89.37;;
36253;SDS011;22291;52.250;21.228;2022-10-16T04:57:21;95.10;;;87.50;;
36253;SDS011;22291;52.250;21.228;2022-10-16T04:59:48;96.63;;;88.55;;
36253;SDS011;22291;52.250;21.228;2022-10-16T05:02:14;95.80;;;88.27;;
36253;SDS011;22291;52.250;21.228;2022-10-16T05:04:40;94.77;;;87.53;;
36253;SDS011;22291;52.250;21.228;2022-10-16T05:07:06;94.22;;;86.90;;
36253;SDS011;22291;52.250;21.228;2022-10-16T05:09:32;94.35;;;86.85;;
36253;SDS011;22291;52.250;21.228;2022-10-16T05:11:58;96.05;;;88.42;;
36253;SDS011;22291;52.250;21.228;2022-10-16T05:14:24;93.05;;;85.55;;
36253;SDS011;22291;52.250;21.228;2022-10-16T05:16:50;94.80;;;87.50;;
36253;SDS011;22291;52.250;21.228;2022-10-16T05:19:17;94.60;;;86.55;;
36253;SDS011;22291;52.250;21.228;2022-10-16T05:21:44;97.35;;;89.30;;
36253;SDS011;22291;52.250;21.228;2022-10-16T05:24:09;94.70;;;86.75;;
36253;SDS011;22291;52.250;21.228;2022-10-16T05:26:36;95.70;;;87.90;;
36253;SDS011;22291;52.250;21.228;2022-10-16T05:29:02;92.75;;;85.38;;
36253;SDS011;22291;52.250;21.228;2022-10-16T05:31:28;94.32;;;86.95;;
36253;SDS011;22291;52.250;21.228;2022-10-16T05:34:01;95.12;;;87.60;;
36253;SDS011;22291;52.250;21.228;2022-10-16T05:36:28;93.62;;;86.22;;
36253;SDS011;22291;52.250;21.228;2022-10-16T05:38:54;93.20;;;85.95;;
36253;SDS011;22291;52.250;21.228;2022-10-16T05:41:20;95.53;;;87.95;;
36253;SDS011;22291;52.250;21.228;2022-10-16T05:43:49;31.27;;;17.42;;
36253;SDS011;22291;52.250;21.228;2022-10-16T05:46:15;34.48;;;16.57;;
36253;SDS011;22291;52.250;21.228;2022-10-16T05:48:42;28.42;;;17.20;;
36253;SDS011;22291;52.250;21.228;2022-10-16T05:51:10;46.05;;;41.18;;
36253;SDS011;22291;52.250;21.228;2022-10-16T05:53:38;95.65;;;88.03;;
36253;SDS011;22291;52.250;21.228;2022-10-16T05:56:06;94.28;;;87.10;;
36253;SDS011;22291;52.250;21.228;2022-10-16T05:58:36;96.97;;;89.35;;
36253;SDS011;22291;52.250;21.228;2022-10-16T06:01:06;95.53;;;88.12;;
36253;SDS011;22291;52.250;21.228;2022-10-16T06:03:39;92.97;;;85.80;;
36253;SDS011;22291;52.250;21.228;2022-10-16T06:06:12;95.28;;;87.97;;
36253;SDS011;22291;52.250;21.228;2022-10-16T06:08:45;94.87;;;87.15;;
36253;SDS011;22291;52.250;21.228;2022-10-16T06:11:14;91.45;;;84.58;;
36253;SDS011;22291;52.250;21.228;2022-10-16T06:13:43;90.70;;;83.85;;
36253;SDS011;22291;52.250;21.228;2022-10-16T06:16:11;93.65;;;86.35;;
36253;SDS011;22291;52.250;21.228;2022-10-16T06:18:38;95.03;;;87.80;;
36253;SDS011;22291;52.250;21.228;2022-10-16T06:21:09;93.70;;;86.45;;
36253;SDS011;22291;52.250;21.228;2022-10-16T06:23:38;91.55;;;84.37;;
36253;SDS011;22291;52.250;21.228;2022-10-16T06:26:07;92.12;;;85.15;;
36253;SDS011;22291;52.250;21.228;2022-10-16T06:28:36;94.72;;;86.95;;
36253;SDS011;22291;52.250;21.228;2022-10-16T06:31:04;93.97;;;86.85;;
36253;SDS011;22291;52.250;21.228;2022-10-16T06:33:32;92.05;;;84.80;;
36253;SDS011;22291;52.250;21.228;2022-10-16T06:36:03;93.92;;;86.90;;
36253;SDS011;22291;52.250;21.228;2022-10-16T06:38:33;92.95;;;85.57;;
36253;SDS011;22291;52.250;21.228;2022-10-16T06:41:01;30.23;;;17.00;;
36253;SDS011;22291;52.250;21.228;2022-10-16T06:43:30;25.05;;;15.55;;
36253;SDS011;22291;52.250;21.228;2022-10-16T06:45:58;24.40;;;15.63;;
36253;SDS011;22291;52.250;21.228;2022-10-16T06:48:27;20.70;;;14.50;;
36253;SDS011;22291;52.250;21.228;2022-10-16T06:53:35;26.07;;;16.48;;
36253;SDS011;22291;52.250;21.228;2022-10-16T06:58:48;25.15;;;15.50;;
36253;SDS011;22291;52.250;21.228;2022-10-16T07:01:16;24.18;;;14.85;;
36253;SDS011;22291;52.250;21.228;2022-10-16T07:03:45;28.05;;;17.32;;
36253;SDS011;22291;52.250;21.228;2022-10-16T07:06:19;24.32;;;15.05;;
36253;SDS011;22291;52.250;21.228;2022-10-16T07:08:48;19.05;;;13.10;;
36253;SDS011;22291;52.250;21.228;2022-10-16T07:11:16;21.75;;;15.63;;
36253;SDS011;22291;52.250;21.228;2022-10-16T07:13:46;91.70;;;85.07;;
36253;SDS011;22291;52.250;21.228;2022-10-16T07:16:14;20.43;;;15.08;;
36253;SDS011;22291;52.250;21.228;2022-10-16T07:18:44;22.50;;;15.10;;
36253;SDS011;22291;52.250;21.228;2022-10-16T07:23:50;22.73;;;14.55;;
36253;SDS011;22291;52.250;21.228;2022-10-16T07:26:18;22.52;;;14.87;;
36253;SDS011;22291;52.250;21.228;2022-10-16T07:28:44;22.50;;;15.58;;
36253;SDS011;22291;52.250;21.228;2022-10-16T07:31:11;22.58;;;15.65;;
36253;SDS011;22291;52.250;21.228;2022-10-16T07:33:40;24.63;;;14.78;;
36253;SDS011;22291;52.250;21.228;2022-10-16T07:36:10;22.55;;;16.15;;
36253;SDS011;22291;52.250;21.228;2022-10-16T07:38:38;22.70;;;16.10;;
36253;SDS011;22291;52.250;21.228;2022-10-16T07:41:06;24.67;;;15.88;;
36253;SDS011;22291;52.250;21.228;2022-10-16T07:46:03;22.42;;;15.05;;
36253;SDS011;22291;52.250;21.228;2022-10-16T07:48:31;23.00;;;16.23;;
36253;SDS011;22291;52.250;21.228;2022-10-16T07:51:02;23.02;;;16.60;;
36253;SDS011;22291;52.250;21.228;2022-10-16T07:53:32;22.55;;;15.38;;
36253;SDS011;22291;52.250;21.228;2022-10-16T07:55:59;26.82;;;15.60;;
36253;SDS011;22291;52.250;21.228;2022-10-16T07:58:34;23.57;;;15.65;;
36253;SDS011;22291;52.250;21.228;2022-10-16T08:01:03;23.18;;;16.25;;
36253;SDS011;22291;52.250;21.228;2022-10-16T08:03:36;23.20;;;15.25;;
36253;SDS011;22291;52.250;21.228;2022-10-16T08:06:03;22.73;;;14.28;;
36253;SDS011;22291;52.250;21.228;2022-10-16T08:08:31;21.50;;;15.18;;
36253;SDS011;22291;52.250;21.228;2022-10-16T08:10:57;21.20;;;14.63;;
36253;SDS011;22291;52.250;21.228;2022-10-16T08:13:25;18.85;;;13.85;;
36253;SDS011;22291;52.250;21.228;2022-10-16T08:15:53;20.57;;;14.00;;
36253;SDS011;22291;52.250;21.228;2022-10-16T08:18:20;19.73;;;14.10;;
36253;SDS011;22291;52.250;21.228;2022-10-16T08:20:45;19.80;;;14.50;;
36253;SDS011;22291;52.250;21.228;2022-10-16T08:23:12;21.45;;;13.93;;
36253;SDS011;22291;52.250;21.228;2022-10-16T08:25:39;19.57;;;13.65;;
36253;SDS011;22291;52.250;21.228;2022-10-16T08:28:07;15.63;;;12.63;;
36253;SDS011;22291;52.250;21.228;2022-10-16T08:30:35;16.67;;;12.65;;
36253;SDS011;22291;52.250;21.228;2022-10-16T08:33:02;19.02;;;13.55;;
36253;SDS011;22291;52.250;21.228;2022-10-16T08:35:30;23.20;;;12.80;;
36253;SDS011;22291;52.250;21.228;2022-10-16T08:37:58;20.70;;;14.10;;
36253;SDS011;22291;52.250;21.228;2022-10-16T08:40:26;20.82;;;14.58;;
36253;SDS011;22291;52.250;21.228;2022-10-16T08:43:16;16.00;;;13.43;;
36253;SDS011;22291;52.250;21.228;2022-10-16T08:48:32;20.20;;;13.22;;
36253;SDS011;22291;52.250;21.228;2022-10-16T08:51:20;17.00;;;13.48;;
36253;SDS011;22291;52.250;21.228;2022-10-16T08:53:54;17.45;;;13.32;;
36253;SDS011;22291;52.250;21.228;2022-10-16T08:56:24;18.37;;;13.85;;
36253;SDS011;22291;52.250;21.228;2022-10-16T08:58:52;19.32;;;13.68;;
36253;SDS011;22291;52.250;21.228;2022-10-16T09:01:20;16.10;;;12.20;;
36253;SDS011;22291;52.250;21.228;2022-10-16T09:06:46;18.45;;;12.80;;
36253;SDS011;22291;52.250;21.228;2022-10-16T09:12:13;20.10;;;12.93;;
36253;SDS011;22291;52.250;21.228;2022-10-16T09:20:49;16.75;;;12.95;;
36253;SDS011;22291;52.250;21.228;2022-10-16T09:23:22;17.90;;;11.97;;
36253;SDS011;22291;52.250;21.228;2022-10-16T09:25:55;18.70;;;12.95;;
36253;SDS011;22291;52.250;21.228;2022-10-16T09:28:24;19.37;;;11.70;;
36253;SDS011;22291;52.250;21.228;2022-10-16T09:30:50;18.00;;;11.85;;
36253;SDS011;22291;52.250;21.228;2022-10-16T09:33:18;16.82;;;12.15;;
36253;SDS011;22291;52.250;21.228;2022-10-16T09:35:52;17.57;;;11.95;;
36253;SDS011;22291;52.250;21.228;2022-10-16T09:38:29;18.07;;;11.80;;
36253;SDS011;22291;52.250;21.228;2022-10-16T09:40:59;20.57;;;11.68;;
36253;SDS011;22291;52.250;21.228;2022-10-16T09:43:34;16.60;;;11.68;;
36253;SDS011;22291;52.250;21.228;2022-10-16T09:46:21;16.27;;;11.20;;
36253;SDS011;22291;52.250;21.228;2022-10-16T09:51:31;14.37;;;10.90;;
36253;SDS011;22291;52.250;21.228;2022-10-16T09:54:02;14.83;;;11.40;;
36253;SDS011;22291;52.250;21.228;2022-10-16T09:56:35;17.80;;;11.10;;
36253;SDS011;22291;52.250;21.228;2022-10-16T09:59:14;14.23;;;11.85;;
36253;SDS011;22291;52.250;21.228;2022-10-16T10:01:44;16.57;;;12.03;;
36253;SDS011;22291;52.250;21.228;2022-10-16T10:04:15;17.75;;;10.85;;
36253;SDS011;22291;52.250;21.228;2022-10-16T10:06:46;16.12;;;11.45;;
36253;SDS011;22291;52.250;21.228;2022-10-16T10:09:26;18.10;;;12.07;;
36253;SDS011;22291;52.250;21.228;2022-10-16T10:12:04;16.50;;;11.48;;
36253;SDS011;22291;52.250;21.228;2022-10-16T10:14:37;14.95;;;11.45;;
36253;SDS011;22291;52.250;21.228;2022-10-16T10:17:17;18.73;;;11.65;;
36253;SDS011;22291;52.250;21.228;2022-10-16T10:22:26;17.12;;;10.72;;
36253;SDS011;22291;52.250;21.228;2022-10-16T10:27:48;16.32;;;10.15;;
36253;SDS011;22291;52.250;21.228;2022-10-16T10:32:49;16.40;;;10.35;;
36253;SDS011;22291;52.250;21.228;2022-10-16T10:35:24;15.65;;;10.60;;
36253;SDS011;22291;52.250;21.228;2022-10-16T10:45:52;17.70;;;10.80;;
36253;SDS011;22291;52.250;21.228;2022-10-16T10:48:43;14.23;;;10.13;;
36253;SDS011;22291;52.250;21.228;2022-10-16T10:51:31;16.27;;;10.53;;
36253;SDS011;22291;52.250;21.228;2022-10-16T10:54:27;17.85;;;11.30;;
36253;SDS011;22291;52.250;21.228;2022-10-16T10:57:10;15.18;;;10.85;;
36253;SDS011;22291;52.250;21.228;2022-10-16T10:59:49;16.62;;;10.75;;
36253;SDS011;22291;52.250;21.228;2022-10-16T11:08:01;13.55;;;10.30;;
36253;SDS011;22291;52.250;21.228;2022-10-16T11:10:54;15.18;;;10.82;;
36253;SDS011;22291;52.250;21.228;2022-10-16T11:13:32;17.17;;;10.35;;
36253;SDS011;22291;52.250;21.228;2022-10-16T11:35:21;14.53;;;9.75;;
36253;SDS011;22291;52.250;21.228;2022-10-16T11:38:00;13.72;;;9.85;;
36253;SDS011;22291;52.250;21.228;2022-10-16T11:40:32;15.98;;;10.68;;
36253;SDS011;22291;52.250;21.228;2022-10-16T11:43:19;14.73;;;9.75;;
36253;SDS011;22291;52.250;21.228;2022-10-16T11:45:51;17.48;;;10.03;;
36253;SDS011;22291;52.250;21.228;2022-10-16T11:51:21;16.27;;;9.73;;
36253;SDS011;22291;52.250;21.228;2022-10-16T11:53:59;14.55;;;9.70;;
36253;SDS011;22291;52.250;21.228;2022-10-16T11:56:46;17.37;;;10.23;;
36253;SDS011;22291;52.250;21.228;2022-10-16T12:08:11;17.55;;;10.35;;
36253;SDS011;22291;52.250;21.228;2022-10-16T12:10:41;15.08;;;10.10;;
36253;SDS011;22291;52.250;21.228;2022-10-16T12:16:18;11.88;;;9.25;;
36253;SDS011;22291;52.250;21.228;2022-10-16T12:18:42;15.13;;;9.88;;
36253;SDS011;22291;52.250;21.228;2022-10-16T12:21:11;13.38;;;9.45;;
36253;SDS011;22291;52.250;21.228;2022-10-16T12:26:31;17.12;;;10.85;;
36253;SDS011;22291;52.250;21.228;2022-10-16T12:29:14;13.43;;;9.68;;
36253;SDS011;22291;52.250;21.228;2022-10-16T12:31:59;13.30;;;8.88;;
36253;SDS011;22291;52.250;21.228;2022-10-16T12:34:41;16.70;;;9.83;;
36253;SDS011;22291;52.250;21.228;2022-10-16T12:37:23;13.60;;;8.93;;
36253;SDS011;22291;52.250;21.228;2022-10-16T12:39:53;14.07;;;8.80;;
36253;SDS011;22291;52.250;21.228;2022-10-16T12:42:23;15.85;;;9.03;;
36253;SDS011;22291;52.250;21.228;2022-10-16T12:44:57;14.50;;;9.60;;
36253;SDS011;22291;52.250;21.228;2022-10-16T12:50:21;11.60;;;8.63;;
36253;SDS011;22291;52.250;21.228;2022-10-16T12:52:54;14.10;;;9.50;;
36253;SDS011;22291;52.250;21.228;2022-10-16T12:55:22;14.03;;;9.83;;
36253;SDS011;22291;52.250;21.228;2022-10-16T12:58:05;13.53;;;10.53;;
36253;SDS011;22291;52.250;21.228;2022-10-16T13:03:42;16.55;;;10.65;;
36253;SDS011;22291;52.250;21.228;2022-10-16T13:09:19;12.73;;;8.78;;
36253;SDS011;22291;52.250;21.228;2022-10-16T13:14:53;15.20;;;9.05;;
36253;SDS011;22291;52.250;21.228;2022-10-16T13:20:35;14.63;;;8.58;;
36253;SDS011;22291;52.250;21.228;2022-10-16T13:23:08;12.93;;;9.45;;
36253;SDS011;22291;52.250;21.228;2022-10-16T13:29:00;19.73;;;10.13;;
36253;SDS011;22291;52.250;21.228;2022-10-16T13:31:28;18.02;;;11.70;;
36253;SDS011;22291;52.250;21.228;2022-10-16T13:33:56;16.32;;;9.83;;
36253;SDS011;22291;52.250;21.228;2022-10-16T13:36:26;14.55;;;10.32;;
36253;SDS011;22291;52.250;21.228;2022-10-16T13:39:10;19.03;;;11.03;;
36253;SDS011;22291;52.250;21.228;2022-10-16T13:41:42;14.10;;;12.68;;
36253;SDS011;22291;52.250;21.228;2022-10-16T13:44:17;19.45;;;17.62;;
36253;SDS011;22291;52.250;21.228;2022-10-16T13:46:45;16.00;;;9.75;;
36253;SDS011;22291;52.250;21.228;2022-10-16T13:49:16;15.38;;;9.78;;
36253;SDS011;22291;52.250;21.228;2022-10-16T13:51:58;14.93;;;9.40;;
36253;SDS011;22291;52.250;21.228;2022-10-16T13:54:26;12.30;;;9.03;;
36253;SDS011;22291;52.250;21.228;2022-10-16T13:56:56;14.50;;;10.45;;
36253;SDS011;22291;52.250;21.228;2022-10-16T13:59:26;16.97;;;9.93;;
36253;SDS011;22291;52.250;21.228;2022-10-16T14:02:01;14.65;;;9.10;;
36253;SDS011;22291;52.250;21.228;2022-10-16T14:04:39;14.68;;;9.85;;
36253;SDS011;22291;52.250;21.228;2022-10-16T14:07:05;15.40;;;9.75;;
36253;SDS011;22291;52.250;21.228;2022-10-16T14:09:37;13.15;;;9.75;;
36253;SDS011;22291;52.250;21.228;2022-10-16T14:12:08;18.45;;;9.83;;
36253;SDS011;22291;52.250;21.228;2022-10-16T14:14:44;15.45;;;10.45;;
36253;SDS011;22291;52.250;21.228;2022-10-16T14:17:22;16.90;;;10.93;;
36253;SDS011;22291;52.250;21.228;2022-10-16T14:19:56;18.07;;;11.05;;
36253;SDS011;22291;52.250;21.228;2022-10-16T14:25:02;16.40;;;10.40;;
36253;SDS011;22291;52.250;21.228;2022-10-16T14:28:04;17.40;;;10.48;;
36253;SDS011;22291;52.250;21.228;2022-10-16T14:30:54;15.20;;;10.28;;
36253;SDS011;22291;52.250;21.228;2022-10-16T14:36:03;18.37;;;10.68;;
36253;SDS011;22291;52.250;21.228;2022-10-16T14:38:39;17.70;;;10.53;;
36253;SDS011;22291;52.250;21.228;2022-10-16T14:41:09;15.30;;;10.40;;
36253;SDS011;22291;52.250;21.228;2022-10-16T14:43:36;16.62;;;11.12;;
36253;SDS011;22291;52.250;21.228;2022-10-16T14:46:12;20.12;;;11.65;;
36253;SDS011;22291;52.250;21.228;2022-10-16T14:48:48;20.82;;;12.65;;
36253;SDS011;22291;52.250;21.228;2022-10-16T14:51:17;24.25;;;11.78;;
36253;SDS011;22291;52.250;21.228;2022-10-16T14:53:46;18.67;;;12.18;;
36253;SDS011;22291;52.250;21.228;2022-10-16T14:56:40;20.52;;;12.70;;
36253;SDS011;22291;52.250;21.228;2022-10-16T14:58:47;20.20;;;11.60;;
36253;SDS011;22291;52.250;21.228;2022-10-16T15:01:15;14.35;;;10.78;;
36253;SDS011;22291;52.250;21.228;2022-10-16T15:03:42;14.95;;;11.60;;
36253;SDS011;22291;52.250;21.228;2022-10-16T15:06:15;16.30;;;10.65;;
36253;SDS011;22291;52.250;21.228;2022-10-16T15:08:42;16.93;;;10.35;;
36253;SDS011;22291;52.250;21.228;2022-10-16T15:11:10;19.05;;;11.45;;
36253;SDS011;22291;52.250;21.228;2022-10-16T15:13:42;16.80;;;10.35;;
36253;SDS011;22291;52.250;21.228;2022-10-16T15:16:13;17.57;;;11.15;;
36253;SDS011;22291;52.250;21.228;2022-10-16T15:18:41;17.00;;;10.90;;
36253;SDS011;22291;52.250;21.228;2022-10-16T15:21:10;16.23;;;10.65;;
36253;SDS011;22291;52.250;21.228;2022-10-16T15:23:49;18.98;;;10.58;;
36253;SDS011;22291;52.250;21.228;2022-10-16T15:26:16;19.12;;;11.18;;
36253;SDS011;22291;52.250;21.228;2022-10-16T15:28:42;20.95;;;11.28;;
36253;SDS011;22291;52.250;21.228;2022-10-16T15:31:08;17.40;;;9.88;;
36253;SDS011;22291;52.250;21.228;2022-10-16T15:33:35;17.15;;;10.90;;
36253;SDS011;22291;52.250;21.228;2022-10-16T15:36:02;18.15;;;10.58;;
36253;SDS011;22291;52.250;21.228;2022-10-16T15:38:29;18.48;;;10.72;;
36253;SDS011;22291;52.250;21.228;2022-10-16T15:40:56;15.70;;;10.35;;
36253;SDS011;22291;52.250;21.228;2022-10-16T15:43:22;16.23;;;10.60;;
36253;SDS011;22291;52.250;21.228;2022-10-16T15:45:58;21.75;;;12.18;;
36253;SDS011;22291;52.250;21.228;2022-10-16T15:48:31;14.43;;;10.60;;
36253;SDS011;22291;52.250;21.228;2022-10-16T15:50:59;18.98;;;11.60;;
36253;SDS011;22291;52.250;21.228;2022-10-16T15:53:32;19.82;;;12.78;;
36253;SDS011;22291;52.250;21.228;2022-10-16T15:56:03;15.93;;;10.58;;
36253;SDS011;22291;52.250;21.228;2022-10-16T15:58:32;14.35;;;10.43;;
36253;SDS011;22291;52.250;21.228;2022-10-16T16:00:59;17.23;;;10.23;;
36253;SDS011;22291;52.250;21.228;2022-10-16T16:03:27;16.62;;;10.78;;
36253;SDS011;22291;52.250;21.228;2022-10-16T16:05:54;14.60;;;10.58;;
36253;SDS011;22291;52.250;21.228;2022-10-16T16:08:21;15.83;;;10.80;;
36253;SDS011;22291;52.250;21.228;2022-10-16T16:10:59;17.45;;;10.32;;
36253;SDS011;22291;52.250;21.228;2022-10-16T16:13:31;15.75;;;11.30;;
36253;SDS011;22291;52.250;21.228;2022-10-16T16:15:58;21.57;;;11.22;;
36253;SDS011;22291;52.250;21.228;2022-10-16T16:18:24;17.10;;;11.60;;
36253;SDS011;22291;52.250;21.228;2022-10-16T16:20:51;18.02;;;11.63;;
36253;SDS011;22291;52.250;21.228;2022-10-16T16:23:18;22.22;;;11.60;;
36253;SDS011;22291;52.250;21.228;2022-10-16T16:25:45;15.45;;;11.57;;
36253;SDS011;22291;52.250;21.228;2022-10-16T16:28:30;16.90;;;11.35;;
36253;SDS011;22291;52.250;21.228;2022-10-16T16:30:56;18.10;;;11.43;;
36253;SDS011;22291;52.250;21.228;2022-10-16T16:33:23;17.50;;;11.43;;
36253;SDS011;22291;52.250;21.228;2022-10-16T16:35:49;16.23;;;12.18;;
36253;SDS011;22291;52.250;21.228;2022-10-16T16:38:15;20.85;;;12.75;;
36253;SDS011;22291;52.250;21.228;2022-10-16T16:40:42;18.92;;;12.70;;